Time;durP1;ratioP1;P1;durP2;ratioP2;P2;SDS_P1;SDS_P2;PMS_P1;PMS_P2;Temp;Humidity;BMP_temperature;BMP_pressure;BME280_temperature;BME280_humidity;BME280_pressure;Samples;Min_cycle;Max_cycle;Signal;HPM_P1;HPM_P2
2023/09/15 00:00:28;;;;;;;5.20;2.50;;;;;;;9.95;93.51;102255.09;5038063;28;20120;-76
2023/09/15 00:02:56;;;;;;;4.40;2.90;;;;;;;9.95;93.53;102252.44;5059129;28;20489;-78
2023/09/15 00:05:28;;;;;;;5.40;2.90;;;;;;;9.95;93.53;102252.44;5043745;28;20051;-75
2023/09/15 00:07:53;;;;;;;7.32;3.08;;;;;;;9.94;93.42;102250.81;5039451;28;20090;-76
2023/09/15 00:10:20;;;;;;;5.38;2.95;;;;;;;9.94;93.65;102251.63;5030322;28;20040;-72
2023/09/15 00:12:45;;;;;;;4.05;2.65;;;;;;;9.94;93.52;102254.28;5030307;28;20055;-77
2023/09/15 00:15:12;;;;;;;4.93;2.50;;;;;;;9.91;93.46;102246.72;5024315;28;20040;-76
2023/09/15 00:17:40;;;;;;;5.68;3.00;;;;;;;9.88;93.78;102252.53;5004010;28;20094;-76
2023/09/15 00:20:13;;;;;;;5.22;2.63;;;;;;;9.88;93.72;102244.50;5019813;28;20051;-76
2023/09/15 00:22:48;;;;;;;4.28;2.90;;;;;;;9.87;93.93;102250.09;5022431;28;20146;-73
2023/09/15 00:25:18;;;;;;;3.50;2.50;;;;;;;9.85;93.97;102253.81;5041339;28;20133;-73
2023/09/15 00:27:51;;;;;;;8.50;3.20;;;;;;;9.83;94.04;102247.88;5024340;28;20032;-73
2023/09/15 00:30:18;;;;;;;;;;;;;;;9.82;94.09;102254.28;5008261;28;20036;-78
2023/09/15 00:32:45;;;;;;;3.75;2.80;;;;;;;9.81;94.17;102257.16;5028574;28;19951;-81
2023/09/15 00:35:12;;;;;;;3.53;2.45;;;;;;;9.81;94.27;102254.47;5023163;28;20162;-78
2023/09/15 00:37:38;;;;;;;4.30;2.50;;;;;;;9.80;93.99;102256.34;5009829;28;20033;-78
2023/09/15 00:40:08;;;;;;;5.20;3.08;;;;;;;9.80;94.27;102255.53;5030161;28;20129;-74
2023/09/15 00:42:37;;;;;;;4.85;2.72;;;;;;;9.76;94.20;102249.84;5009898;28;20036;-79
2023/09/15 00:45:06;;;;;;;5.93;3.15;;;;;;;9.76;94.24;102254.38;5046424;28;20036;-76
2023/09/15 00:47:36;;;;;;;7.85;3.13;;;;;;;9.73;94.50;102249.44;5022386;28;20055;-73
2023/09/15 00:50:03;;;;;;;6.80;2.60;;;;;;;9.72;94.28;102253.19;5038796;28;20036;-77
2023/09/15 00:52:30;;;;;;;6.70;3.10;;;;;;;9.72;94.27;102253.19;5030889;28;20048;-75
2023/09/15 00:54:56;;;;;;;5.53;2.72;;;;;;;9.71;94.14;102249.69;5027000;28;20093;-79
2023/09/15 00:57:25;;;;;;;4.03;2.85;;;;;;;9.72;94.41;102254.00;5010117;28;21052;-75
2023/09/15 00:59:51;;;;;;;4.40;2.63;;;;;;;9.72;94.28;102253.19;5027340;28;20036;-77
2023/09/15 01:02:17;;;;;;;5.45;2.90;;;;;;;9.71;94.31;102251.56;5017555;28;20055;-76
2023/09/15 01:04:43;;;;;;;3.63;2.75;;;;;;;9.68;94.37;102241.28;5045979;28;20489;-73
2023/09/15 01:07:10;;;;;;;3.72;2.80;;;;;;;9.64;94.51;102243.63;5046138;28;20024;-76
2023/09/15 01:09:36;;;;;;;5.82;2.75;;;;;;;9.62;94.17;102242.19;5013560;28;20441;-75
2023/09/15 01:12:04;;;;;;;5.07;2.63;;;;;;;9.62;94.27;102242.19;5039664;28;20025;-74
2023/09/15 01:14:30;;;;;;;6.28;3.17;;;;;;;9.58;94.37;102241.84;5017779;28;20622;-78
2023/09/15 01:17:05;;;;;;;3.78;2.67;;;;;;;9.58;94.12;102234.63;5007777;28;20032;-76
2023/09/15 01:19:57;;;;;;;5.03;3.15;;;;;;;9.58;94.38;102239.97;5008191;28;20052;-75
2023/09/15 01:22:42;;;;;;;3.53;2.70;;;;;;;9.52;93.91;102234.72;5031367;28;20067;-76
2023/09/15 01:25:26;;;;;;;5.30;2.63;;;;;;;9.51;93.91;102236.56;5052302;28;20029;-79
2023/09/15 01:28:19;;;;;;;4.80;2.63;;;;;;;9.50;94.11;102239.47;5043317;28;20041;-77
2023/09/15 01:30:46;;;;;;;4.32;2.47;;;;;;;9.44;93.82;102227.81;5056052;28;20098;-78
2023/09/15 01:33:13;;;;;;;8.48;2.35;;;;;;;9.46;93.90;102228.41;5015205;28;20033;-76
2023/09/15 01:35:39;;;;;;;7.32;2.45;;;;;;;9.44;93.87;102225.16;5045567;28;20068;-77
2023/09/15 01:38:04;;;;;;;4.82;2.40;;;;;;;9.42;93.82;102229.91;5023710;28;20110;-78
2023/09/15 01:40:31;;;;;;;3.08;2.10;;;;;;;9.41;93.89;102230.94;5024970;28;20135;-77
2023/09/15 01:42:57;;;;;;;2.97;2.00;;;;;;;9.38;93.62;102228.72;5028218;28;20029;-78
2023/09/15 01:45:23;;;;;;;3.60;2.40;;;;;;;9.37;93.74;102224.41;5028420;28;20040;-74
2023/09/15 01:47:50;;;;;;;5.55;2.70;;;;;;;9.33;94.06;102220.56;5038485;28;20062;-76
2023/09/15 01:50:17;;;;;;;3.30;2.13;;;;;;;9.30;93.85;102213.00;5047166;28;20029;-76
2023/09/15 01:52:43;;;;;;;2.90;2.13;;;;;;;9.28;93.88;102220.44;5070830;28;20548;-78
2023/09/15 01:55:10;;;;;;;3.65;2.05;;;;;;;9.26;94.22;102219.81;5045961;28;20036;-77
2023/09/15 01:57:36;;;;;;;4.43;2.47;;;;;;;9.25;94.13;102215.53;5022188;28;20033;-75
2023/09/15 02:00:03;;;;;;;5.25;1.95;;;;;;;9.26;94.13;102219.81;5028873;28;20040;-77
2023/09/15 02:02:37;;;;;;;4.43;2.13;;;;;;;9.24;94.13;102224.59;5048614;28;20518;-76
2023/09/15 02:05:04;;;;;;;4.80;2.00;;;;;;;9.20;94.32;102218.84;5048993;28;20040;-76
2023/09/15 02:07:31;;;;;;;2.75;2.10;;;;;;;9.18;93.95;102217.47;5015275;28;20509;-77
2023/09/15 02:09:59;;;;;;;3.25;1.85;;;;;;;9.17;93.99;102213.16;5047025;28;20193;-75
2023/09/15 02:12:26;;;;;;;;;;;;;;;9.14;93.98;102226.94;5049875;28;20048;-77
2023/09/15 02:14:52;;;;;;;6.03;1.70;;;;;;;9.11;94.18;102214.06;5048139;28;19917;-77
2023/09/15 02:17:17;;;;;;;3.55;2.30;;;;;;;9.11;94.26;102227.41;5010237;28;20043;-77
2023/09/15 02:19:46;;;;;;;3.10;1.88;;;;;;;9.10;94.32;102223.94;5038620;28;20052;-77
2023/09/15 02:22:13;;;;;;;3.58;1.70;;;;;;;9.07;94.04;102224.34;5034165;28;20048;-78
2023/09/15 02:24:39;;;;;;;3.63;1.88;;;;;;;9.09;94.19;102216.97;5031564;28;20098;-77
2023/09/15 02:27:05;;;;;;;4.28;1.92;;;;;;;9.08;93.70;102219.81;5037153;28;20036;-78
2023/09/15 02:29:31;;;;;;;4.28;2.63;;;;;;;9.06;93.87;102205.88;5020056;28;20048;-78
2023/09/15 02:31:57;;;;;;;4.57;1.70;;;;;;;9.06;93.98;102211.22;5012809;28;20032;-78
2023/09/15 02:34:23;;;;;;;5.28;2.15;;;;;;;9.06;93.75;102205.88;5049301;28;20422;-78
2023/09/15 02:36:48;;;;;;;3.15;1.75;;;;;;;9.06;94.54;102205.88;5022489;28;20047;-78
2023/09/15 02:39:14;;;;;;;3.50;1.90;;;;;;;9.05;94.36;102205.06;5046095;28;20167;-78
2023/09/15 02:41:41;;;;;;;4.85;2.00;;;;;;;9.01;94.68;102199.38;5044710;28;20167;-79
2023/09/15 02:44:08;;;;;;;3.80;2.10;;;;;;;9.02;94.76;102205.53;5051564;28;20119;-78
2023/09/15 02:46:34;;;;;;;5.22;2.00;;;;;;;8.98;94.32;102197.13;5033432;28;20037;-76
2023/09/15 02:49:01;;;;;;;5.15;2.20;;;;;;;8.95;94.21;102202.94;5050127;28;20032;-78
2023/09/15 02:51:27;;;;;;;3.55;2.03;;;;;;;8.91;94.22;102201.72;5030087;28;20040;-77
2023/09/15 02:53:53;;;;;;;3.50;1.95;;;;;;;8.91;94.30;102200.91;5016015;28;20047;-79
2023/09/15 02:56:18;;;;;;;3.58;2.10;;;;;;;8.88;94.36;102204.84;5031291;28;20055;-77
2023/09/15 02:58:46;;;;;;;4.45;1.90;;;;;;;8.88;94.19;102198.69;5045156;28;20037;-76
2023/09/15 03:01:16;;;;;;;5.60;2.00;;;;;;;8.85;94.21;102204.47;5024779;28;20064;-77
2023/09/15 03:03:49;;;;;;;5.53;1.70;;;;;;;8.79;94.15;102198.16;5047384;28;20119;-76
2023/09/15 03:06:16;;;;;;;5.78;1.88;;;;;;;8.80;93.75;102197.13;5008394;28;20032;-77
2023/09/15 03:08:43;;;;;;;3.85;1.83;;;;;;;8.79;93.83;102195.50;5025215;28;21335;-76
2023/09/15 03:11:17;;;;;;;3.13;2.10;;;;;;;8.77;93.95;102191.41;5046722;28;20028;-78
2023/09/15 03:13:42;;;;;;;7.03;1.88;;;;;;;8.74;93.85;102198.03;5065633;28;20059;-77
2023/09/15 03:16:10;;;;;;;3.97;1.92;;;;;;;8.72;93.64;102195.56;5048379;28;20071;-77
2023/09/15 03:18:36;;;;;;;4.22;2.00;;;;;;;8.71;93.41;102193.13;5027928;28;20059;-79
2023/09/15 03:21:04;;;;;;;5.90;1.73;;;;;;;8.69;93.74;102190.66;5046029;28;20114;-77
2023/09/15 03:23:30;;;;;;;4.78;1.85;;;;;;;8.67;93.49;102192.75;5033736;28;20053;-75
2023/09/15 03:26:04;;;;;;;5.28;1.92;;;;;;;8.65;93.74;102194.81;5043054;28;20029;-78
2023/09/15 03:28:35;;;;;;;4.00;2.10;;;;;;;8.66;93.77;102188.44;5024678;28;20036;-78
2023/09/15 03:31:03;;;;;;;4.53;1.80;;;;;;;8.63;93.53;102188.06;5022718;28;20035;-78
2023/09/15 03:33:32;;;;;;;5.22;2.08;;;;;;;8.59;93.25;102190.34;5027436;28;20040;-78
2023/09/15 03:35:59;;;;;;;6.88;2.05;;;;;;;8.56;93.67;102176.63;5047599;28;20098;-77
2023/09/15 03:38:25;;;;;;;5.82;2.10;;;;;;;8.54;93.75;102186.72;5021763;28;20057;-74
2023/09/15 03:40:51;;;;;;;5.50;1.70;;;;;;;8.52;93.77;102189.59;5028851;28;20048;-78
2023/09/15 03:43:17;;;;;;;3.38;1.70;;;;;;;8.51;93.91;102185.31;5037449;28;20036;-78
2023/09/15 03:45:46;;;;;;;5.55;2.05;;;;;;;8.50;93.58;102190.88;5047919;28;20025;-76
2023/09/15 03:48:12;;;;;;;3.03;1.70;;;;;;;8.47;93.54;102192.94;5012574;28;20094;-78
2023/09/15 03:50:39;;;;;;;5.75;2.10;;;;;;;8.44;93.61;102196.03;5045750;28;20040;-78
2023/09/15 03:53:06;;;;;;;4.68;1.77;;;;;;;8.42;93.56;102192.78;5040524;28;20622;-78
2023/09/15 03:55:33;;;;;;;6.07;2.30;;;;;;;8.40;93.44;102197.53;5017081;28;20481;-78
2023/09/15 03:58:05;;;;;;;6.85;2.33;;;;;;;8.37;93.69;102189.94;5049198;28;20067;-79
2023/09/15 04:00:31;;;;;;;5.80;2.17;;;;;;;8.37;93.88;102195.28;5017215;28;20516;-78
2023/09/15 04:02:56;;;;;;;4.85;2.22;;;;;;;8.35;94.10;102186.69;5013360;28;20043;-79
2023/09/15 04:05:22;;;;;;;7.38;2.10;;;;;;;8.34;93.98;102179.69;5026166;28;20037;-77
2023/09/15 04:07:50;;;;;;;4.20;2.25;;;;;;;8.32;94.05;102184.41;5045306;28;20028;-78
2023/09/15 04:10:15;;;;;;;3.45;2.20;;;;;;;8.33;94.46;102186.06;5043519;28;20036;-76
2023/09/15 04:12:42;;;;;;;3.78;2.30;;;;;;;8.34;94.68;102182.34;5047819;28;20062;-79
2023/09/15 04:15:11;;;;;;;3.17;1.90;;;;;;;8.36;94.52;102185.66;5050883;28;20060;-77
2023/09/15 04:17:38;;;;;;;3.90;1.70;;;;;;;8.37;94.64;102197.97;5022575;28;20115;-78
2023/09/15 04:20:09;;;;;;;3.65;1.70;;;;;;;8.38;94.78;102194.25;5053882;28;20084;-79
2023/09/15 04:22:35;;;;;;;2.83;2.08;;;;;;;8.42;95.05;102179.44;5017887;28;20060;-79
2023/09/15 04:25:02;;;;;;;3.42;2.05;;;;;;;8.45;95.03;102184.31;5025897;28;20025;-80
2023/09/15 04:27:34;;;;;;;6.22;2.20;;;;;;;8.47;94.99;102187.59;5044259;28;20051;-75
2023/09/15 04:30:01;;;;;;;3.03;2.10;;;;;;;8.50;95.23;102185.53;5028739;28;20047;-78
2023/09/15 04:32:32;;;;;;;4.57;2.25;;;;;;;8.50;94.86;102174.84;5019474;28;20131;-80
2023/09/15 04:34:58;;;;;;;5.57;2.13;;;;;;;8.51;95.29;102181.81;5028272;28;20068;-80
2023/09/15 04:37:24;;;;;;;3.42;2.03;;;;;;;8.54;95.45;102184.06;5027962;28;20389;-77
2023/09/15 04:39:50;;;;;;;2.88;1.80;;;;;;;8.54;95.45;102181.41;5026247;28;20037;-79
2023/09/15 04:42:17;;;;;;;4.05;2.00;;;;;;;8.57;95.40;102188.94;5010785;28;20032;-79
2023/09/15 04:44:43;;;;;;;;;;;;;;;8.57;95.62;102180.94;5024155;28;20512;-78
2023/09/15 04:47:09;;;;;;;8.52;2.22;;;;;;;8.55;95.98;102183.03;5025047;28;19916;-78
2023/09/15 04:49:35;;;;;;;6.25;2.45;;;;;;;8.55;95.74;102183.03;5028660;28;20036;-78
2023/09/15 04:52:01;;;;;;;;;;;;;;;8.57;95.82;102196.97;5024291;28;20047;-80
2023/09/15 04:54:28;;;;;;;5.10;2.38;;;;;;;8.57;95.79;102184.41;5042646;28;20416;-78
2023/09/15 04:56:55;;;;;;;4.80;1.90;;;;;;;8.58;96.07;102194.06;5041835;28;20039;-77
2023/09/15 04:59:21;;;;;;;4.65;2.50;;;;;;;8.60;96.23;102180.47;5044876;28;20032;-79
2023/09/15 05:01:50;;;;;;;3.60;2.15;;;;;;;8.63;96.70;102186.22;5011319;28;20035;-79
2023/09/15 05:04:15;;;;;;;6.10;2.20;;;;;;;8.64;96.47;102182.50;5025894;28;20602;-78
2023/09/15 05:06:42;;;;;;;4.20;2.70;;;;;;;8.70;96.85;102191.47;5011336;28;20035;-80
2023/09/15 05:09:10;;;;;;;;;;;;;;;8.74;97.27;102187.34;5019763;28;20062;-79
2023/09/15 05:11:38;;;;;;;6.18;2.53;;;;;;;8.75;97.03;102188.97;5058901;28;19982;-79
2023/09/15 05:14:04;;;;;;;3.45;2.42;;;;;;;8.77;96.90;102186.88;5024990;28;20119;-77
2023/09/15 05:16:32;;;;;;;3.75;2.50;;;;;;;8.80;97.21;102188.28;4997642;28;20037;-79
2023/09/15 05:18:59;;;;;;;3.88;2.30;;;;;;;8.82;97.06;102195.06;5045273;28;20040;-79
2023/09/15 05:21:25;;;;;;;5.47;2.67;;;;;;;8.86;97.31;102198.09;5045048;28;20037;-77
2023/09/15 05:23:50;;;;;;;6.65;2.58;;;;;;;8.89;97.55;102205.69;5025730;28;20037;-77
2023/09/15 05:26:16;;;;;;;4.32;2.50;;;;;;;8.94;97.34;102203.97;5025459;28;20043;-80
2023/09/15 05:28:42;;;;;;;5.72;2.50;;;;;;;8.98;97.59;102209.66;5022982;28;20040;-79
2023/09/15 05:31:08;;;;;;;3.88;2.40;;;;;;;9.01;97.46;102203.91;5010352;28;20094;-79
2023/09/15 05:33:35;;;;;;;4.22;2.63;;;;;;;9.04;97.24;102203.44;5027072;28;20047;-77
2023/09/15 05:36:01;;;;;;;3.67;2.33;;;;;;;9.11;97.64;102206.03;5039766;28;20041;-79
2023/09/15 05:38:27;;;;;;;5.10;2.42;;;;;;;9.13;97.63;102203.94;5051401;28;20081;-77
2023/09/15 05:40:54;;;;;;;3.70;2.47;;;;;;;9.15;97.35;102204.56;5044914;28;20036;-78
2023/09/15 05:43:21;;;;;;;5.70;2.63;;;;;;;9.17;97.28;102203.28;5047626;28;20035;-79
2023/09/15 05:45:47;;;;;;;3.47;2.83;;;;;;;9.20;97.70;102196.66;5043319;28;20038;-80
2023/09/15 05:48:18;;;;;;;;;;;;;;;9.23;97.45;102204.25;5030465;28;20516;-79
2023/09/15 05:50:44;;;;;;;5.28;2.88;;;;;;;9.26;97.42;102201.09;5043699;28;19920;-78
2023/09/15 05:53:10;;;;;;;4.20;2.45;;;;;;;9.29;97.59;102203.34;5029897;28;20568;-78
2023/09/15 05:55:36;;;;;;;5.07;3.03;;;;;;;9.33;97.64;102207.19;5041223;28;20040;-80
2023/09/15 05:58:02;;;;;;;4.80;2.50;;;;;;;9.38;97.42;102203.84;5030095;28;20056;-80
2023/09/15 06:00:28;;;;;;;4.75;2.40;;;;;;;9.42;97.68;102215.75;5056124;28;20360;-80
2023/09/15 06:02:54;;;;;;;4.93;3.05;;;;;;;9.46;97.57;102212.38;5043353;28;20072;-78
2023/09/15 06:05:22;;;;;;;5.80;3.00;;;;;;;9.50;97.88;102197.50;5063929;28;20032;-79
2023/09/15 06:07:52;;;;;;;7.75;3.45;;;;;;;9.55;98.33;102200.31;5040802;28;20047;-79
2023/09/15 06:10:18;;;;;;;4.60;2.65;;;;;;;9.62;98.01;102199.38;5022028;28;20174;-80
2023/09/15 06:12:43;;;;;;;4.95;3.05;;;;;;;9.65;98.17;102209.66;5019167;28;20136;-77
2023/09/15 06:15:10;;;;;;;5.45;3.22;;;;;;;9.72;97.99;102202.34;5044606;28;20091;-77
2023/09/15 06:17:36;;;;;;;4.65;2.63;;;;;;;9.81;98.15;102203.66;5063371;28;20037;-76
2023/09/15 06:20:03;;;;;;;8.63;3.63;;;;;;;9.89;98.21;102205.16;5009801;28;20097;-79
2023/09/15 06:22:29;;;;;;;6.10;3.28;;;;;;;9.96;98.72;102206.72;5028471;28;20568;-78
2023/09/15 06:24:54;;;;;;;5.85;2.88;;;;;;;10.06;98.58;102206.97;5046486;28;20040;-75
2023/09/15 06:27:20;;;;;;;5.60;2.85;;;;;;;10.15;98.28;102209.31;5024136;28;20051;-76
2023/09/15 06:29:46;;;;;;;6.63;3.50;;;;;;;10.24;97.81;102210.63;5028343;28;20059;-75
2023/09/15 06:32:12;;;;;;;5.03;2.65;;;;;;;10.29;97.22;102208.06;5058324;28;20032;-73
2023/09/15 06:34:38;;;;;;;5.28;2.92;;;;;;;10.38;97.08;102215.53;5049417;28;20135;-73
2023/09/15 06:37:04;;;;;;;;;;;;;;;10.46;96.44;102217.06;5043747;28;20047;-73
2023/09/15 06:39:31;;;;;;;7.75;2.70;;;;;;;10.49;95.91;102205.84;5030110;28;19916;-74
2023/09/15 06:41:57;;;;;;;5.03;2.85;;;;;;;10.56;95.79;102209.22;5051735;28;20051;-77
2023/09/15 06:44:23;;;;;;;4.65;2.85;;;;;;;10.62;95.42;102210.16;5028202;28;20037;-73
2023/09/15 06:46:48;;;;;;;4.53;2.72;;;;;;;10.71;95.35;102210.66;5027884;28;20035;-73
2023/09/15 06:49:16;;;;;;;4.00;2.95;;;;;;;10.75;95.04;102209.13;5018663;28;20038;-72
2023/09/15 06:51:41;;;;;;;5.88;3.15;;;;;;;10.82;94.67;102209.81;5028294;28;20039;-72
2023/09/15 06:54:07;;;;;;;5.18;3.20;;;;;;;10.90;95.14;102212.13;5031477;28;20036;-73
2023/09/15 06:56:33;;;;;;;4.22;2.80;;;;;;;10.95;95.04;102209.56;5030294;28;20036;-74
2023/09/15 06:58:58;;;;;;;4.72;3.00;;;;;;;11.03;94.77;102211.03;5026122;28;20036;-73
2023/09/15 07:01:24;;;;;;;4.35;2.70;;;;;;;11.10;94.45;102207.19;5013792;28;20678;-74
2023/09/15 07:03:50;;;;;;;5.05;2.95;;;;;;;11.18;94.27;102203.34;5049439;28;20028;-74
2023/09/15 07:06:18;;;;;;;7.03;3.15;;;;;;;11.29;94.02;102204.34;5034597;28;20701;-73
2023/09/15 07:08:43;;;;;;;4.60;2.78;;;;;;;11.41;93.68;102205.09;5047801;28;20052;-74
2023/09/15 07:11:09;;;;;;;6.05;2.80;;;;;;;11.55;93.04;102197.59;5063203;28;20084;-78
2023/09/15 07:13:35;;;;;;;4.50;2.65;;;;;;;11.62;92.23;102203.63;5048905;28;20094;-75
2023/09/15 07:16:01;;;;;;;5.57;2.85;;;;;;;11.72;92.00;102196.56;5030270;28;20055;-76
2023/09/15 07:18:27;;;;;;;4.65;2.50;;;;;;;11.86;91.55;102199.00;5031270;28;20043;-74
2023/09/15 07:20:53;;;;;;;4.07;2.80;;;;;;;11.98;91.29;102197.03;5019669;28;20032;-74
2023/09/15 07:23:18;;;;;;;3.67;2.28;;;;;;;12.05;90.56;102197.66;5012596;28;20401;-75
2023/09/15 07:25:48;;;;;;;4.35;2.60;;;;;;;12.14;90.29;102198.91;5030463;28;20044;-76
2023/09/15 07:28:15;;;;;;;3.33;2.35;;;;;;;12.27;90.32;102195.09;5043551;28;20501;-76
2023/09/15 07:30:41;;;;;;;2.90;2.20;;;;;;;12.38;89.98;102190.66;5045464;28;20065;-73
2023/09/15 07:33:08;;;;;;;3.38;2.33;;;;;;;12.44;90.12;102187.81;5040235;28;20057;-73
2023/09/15 07:35:36;;;;;;;4.40;2.70;;;;;;;12.57;89.68;102194.72;5045083;28;20815;-75
2023/09/15 07:38:05;;;;;;;4.57;2.80;;;;;;;12.66;89.95;102190.53;5027043;28;20458;-74
2023/09/15 07:40:31;;;;;;;3.90;2.30;;;;;;;12.73;89.32;102185.78;5028004;28;20052;-74
2023/09/15 07:42:57;;;;;;;5.10;2.65;;;;;;;12.87;88.92;102185.41;5043829;28;20482;-74
2023/09/15 07:45:33;;;;;;;4.35;2.47;;;;;;;12.99;89.12;102175.34;3641449;22;21012;-72
2023/09/15 07:47:59;;;;;;;7.55;2.80;;;;;;;13.08;88.34;102188.13;5030940;28;20036;-76
2023/09/15 07:50:24;;;;;;;3.90;2.45;;;;;;;13.19;87.30;102172.09;5012492;28;20110;-74
2023/09/15 07:52:50;;;;;;;3.45;2.28;;;;;;;13.23;86.64;102166.00;5044717;28;20032;-74
2023/09/15 07:55:15;;;;;;;4.72;2.88;;;;;;;13.36;86.60;102176.38;5022059;28;20494;-74
2023/09/15 07:57:41;;;;;;;5.65;2.50;;;;;;;13.48;86.40;102164.63;5027600;28;20052;-74
2023/09/15 08:00:10;;;;;;;3.95;2.90;;;;;;;13.58;86.34;102176.31;5024938;28;20040;-72
2023/09/15 08:02:39;;;;;;;4.20;2.70;;;;;;;13.69;85.97;102174.53;5008787;28;20041;-74
2023/09/15 08:05:05;;;;;;;4.70;2.40;;;;;;;13.82;86.17;102170.63;5009771;28;20047;-74
2023/09/15 08:07:33;;;;;;;4.32;2.35;;;;;;;13.91;85.74;102180.66;5007684;28;20068;-73
2023/09/15 08:10:01;;;;;;;4.15;2.53;;;;;;;14.04;85.78;102170.50;5048256;28;20045;-73
2023/09/15 08:12:27;;;;;;;4.95;2.40;;;;;;;14.15;84.65;102180.28;5042545;28;20583;-74
2023/09/15 08:14:53;;;;;;;5.40;2.85;;;;;;;14.26;84.38;102184.69;4994824;28;20095;-75
2023/09/15 08:17:18;;;;;;;;;;;;;;;14.35;82.92;102183.09;5026001;28;20478;-74
2023/09/15 08:19:44;;;;;;;5.88;2.33;;;;;;;14.47;83.36;102181.06;5018213;28;19917;-76
2023/09/15 08:22:09;;;;;;;;;;;;;;;14.60;82.08;102185.19;5025517;28;20041;-76
2023/09/15 08:24:37;;;;;;;4.40;2.50;;;;;;;14.69;81.98;102177.41;5010408;28;19917;-75
2023/09/15 08:27:03;;;;;;;3.83;2.30;;;;;;;14.79;81.14;102177.47;5022943;28;20064;-75
2023/09/15 08:29:29;;;;;;;5.00;2.53;;;;;;;14.83;80.62;102175.84;5006023;28;20037;-76
2023/09/15 08:31:55;;;;;;;4.50;2.72;;;;;;;14.95;81.49;102171.06;5036908;28;20032;-75
2023/09/15 08:34:21;;;;;;;;;;;;;;;15.07;81.36;102172.72;5023645;28;20041;-75
2023/09/15 08:36:46;;;;;;;4.20;1.88;;;;;;;15.23;81.42;102163.59;5002681;28;19921;-73
2023/09/15 08:39:12;;;;;;;;;;;;;;;15.29;78.67;102160.63;5010172;28;20036;-74
2023/09/15 08:41:50;;;;;;;5.25;2.33;;;;;;;15.38;78.74;102165.53;5023812;28;19917;-75
2023/09/15 08:44:18;;;;;;;4.90;2.70;;;;;;;15.49;78.98;102167.97;5038108;28;20025;-76
2023/09/15 08:46:44;;;;;;;4.45;2.33;;;;;;;15.53;77.63;102158.25;5027150;28;20609;-75
2023/09/15 08:49:11;;;;;;;3.38;2.10;;;;;;;15.62;76.79;102157.75;5016927;28;20650;-73
2023/09/15 08:51:37;;;;;;;;;;;;;;;15.68;76.19;102156.69;5041852;28;20124;-73
2023/09/15 08:54:03;;;;;;;4.15;2.67;;;;;;;15.75;76.68;102157.22;5034524;28;19973;-74
2023/09/15 08:56:30;;;;;;;3.70;2.10;;;;;;;15.89;77.58;102161.00;4994768;28;20055;-74
2023/09/15 08:58:58;;;;;;;3.28;2.70;;;;;;;15.93;75.62;102161.28;4991582;28;20048;-73
2023/09/15 09:01:24;;;;;;;3.35;2.05;;;;;;;16.00;76.26;102154.53;5007272;28;20037;-74
2023/09/15 09:03:49;;;;;;;;;;;;;;;16.10;76.41;102151.78;5008885;28;20052;-73
2023/09/15 09:06:16;;;;;;;4.22;2.20;;;;;;;16.20;76.34;102152.88;5024800;28;20007;-74
2023/09/15 09:08:45;;;;;;;3.70;2.30;;;;;;;16.28;74.63;102155.03;5025839;28;20045;-74
2023/09/15 09:11:11;;;;;;;5.45;2.20;;;;;;;16.36;74.20;102152.56;5055709;28;20055;-75
2023/09/15 09:13:38;;;;;;;3.50;1.83;;;;;;;16.44;73.13;102151.19;5012518;28;20036;-75
2023/09/15 09:16:10;;;;;;;5.25;2.58;;;;;;;16.53;73.02;102138.75;5020997;28;20700;-74
2023/09/15 09:18:36;;;;;;;4.32;1.95;;;;;;;16.60;71.85;102147.38;5022959;28;20033;-75
2023/09/15 09:21:05;;;;;;;;;;;;;;;16.71;71.21;102139.22;5006712;28;20049;-75
2023/09/15 09:23:31;;;;;;;3.28;1.95;;;;;;;16.85;73.60;102143.75;5034557;28;19913;-75
2023/09/15 09:26:00;;;;;;;4.25;2.13;;;;;;;16.99;71.13;102137.75;5017463;28;20029;-76
2023/09/15 09:28:29;;;;;;;4.07;2.00;;;;;;;17.02;72.38;102131.78;5039793;28;20052;-73
2023/09/15 09:30:55;;;;;;;5.50;2.40;;;;;;;17.07;70.12;102140.69;5022812;28;20497;-73
2023/09/15 09:33:22;;;;;;;4.18;2.30;;;;;;;17.16;70.28;102125.47;5038402;28;20127;-73
2023/09/15 09:35:49;;;;;;;3.75;2.10;;;;;;;17.28;69.73;102130.56;5040499;28;20036;-74
2023/09/15 09:38:15;;;;;;;4.70;2.08;;;;;;;17.37;68.78;102133.47;5025392;28;20047;-73
2023/09/15 09:40:40;;;;;;;3.58;2.00;;;;;;;17.51;69.79;102137.16;5037980;28;20128;-74
2023/09/15 09:43:06;;;;;;;;;;;;;;;17.57;68.66;102133.31;5038871;28;20043;-74
2023/09/15 09:45:32;;;;;;;3.33;2.03;;;;;;;17.64;69.74;102117.53;5022558;28;19917;-74
2023/09/15 09:48:02;;;;;;;3.53;1.98;;;;;;;17.74;70.20;102122.09;5024800;28;20178;-76
2023/09/15 09:50:28;;;;;;;4.32;1.95;;;;;;;17.87;68.42;102117.91;5038834;28;20087;-74
2023/09/15 09:52:54;;;;;;;;;;;;;;;17.89;66.91;102113.84;5006190;28;20037;-75
2023/09/15 09:55:23;;;;;;;4.25;2.13;;;;;;;17.97;68.83;102110.50;5035924;28;19960;-75
2023/09/15 09:57:49;;;;;;;3.85;1.88;;;;;;;17.98;67.90;102109.41;5023381;28;20033;-73
2023/09/15 10:00:19;;;;;;;;;;;;;;;18.05;68.82;102111.78;5007731;28;20040;-76
2023/09/15 10:02:45;;;;;;;5.53;2.45;;;;;;;18.07;66.89;102104.16;5025567;28;19940;-75
2023/09/15 10:05:11;;;;;;;4.22;2.22;;;;;;;18.18;66.54;102115.72;5011443;28;20060;-74
2023/09/15 10:07:37;;;;;;;4.90;2.40;;;;;;;18.28;67.88;102110.97;5042015;28;20091;-74
2023/09/15 10:10:05;;;;;;;;;;;;;;;18.30;65.58;102112.63;5038015;28;20549;-75
2023/09/15 10:12:31;;;;;;;3.08;2.13;;;;;;;18.35;66.61;102105.22;4992210;28;19927;-77
2023/09/15 10:14:58;;;;;;;5.20;2.92;;;;;;;18.46;66.48;102095.06;5021974;28;20044;-74
2023/09/15 10:17:24;;;;;;;5.72;2.55;;;;;;;18.52;66.17;102096.63;5022819;28;20044;-74
2023/09/15 10:19:51;;;;;;;3.33;2.40;;;;;;;18.42;64.19;102088.59;5024697;28;20853;-73
2023/09/15 10:22:17;;;;;;;5.53;2.45;;;;;;;18.52;65.52;102083.06;5038428;28;20090;-75
2023/09/15 10:24:44;;;;;;;5.10;2.10;;;;;;;18.66;66.18;102085.88;5006581;28;20045;-73
2023/09/15 10:27:12;;;;;;;3.85;2.50;;;;;;;18.67;65.35;102090.22;5023258;28;20547;-73
2023/09/15 10:29:39;;;;;;;4.25;2.78;;;;;;;18.71;65.84;102086.63;5041748;28;20041;-74
2023/09/15 10:32:05;;;;;;;3.45;2.55;;;;;;;18.78;66.00;102084.38;5025489;28;20037;-73
2023/09/15 10:34:32;;;;;;;4.10;2.20;;;;;;;18.85;66.07;102085.91;5022098;28;20116;-74
2023/09/15 10:37:04;;;;;;;3.38;2.60;;;;;;;18.86;64.78;102082.91;5037879;28;20041;-74
2023/09/15 10:39:41;;;;;;;6.95;2.53;;;;;;;19.03;66.96;102082.38;5024911;28;20041;-73
2023/09/15 10:42:09;;;;;;;4.28;2.70;;;;;;;19.07;65.62;102078.00;5042105;28;20082;-73
2023/09/15 10:44:35;;;;;;;4.47;2.22;;;;;;;19.13;66.41;102065.94;5043417;28;20048;-75
2023/09/15 10:47:01;;;;;;;5.97;2.67;;;;;;;19.28;65.81;102073.03;5016538;28;20465;-75
2023/09/15 10:49:30;;;;;;;4.05;2.20;;;;;;;19.30;64.68;102062.69;5006034;28;20110;-74
2023/09/15 10:52:02;;;;;;;3.47;2.53;;;;;;;19.32;64.21;102069.47;5021157;28;20163;-75
2023/09/15 10:54:33;;;;;;;4.78;2.30;;;;;;;19.44;65.74;102060.00;5042381;28;20033;-74
2023/09/15 10:56:59;;;;;;;3.85;2.50;;;;;;;19.53;64.64;102063.69;5026626;28;20060;-76
2023/09/15 10:59:26;;;;;;;5.25;2.65;;;;;;;19.61;65.40;102049.44;5009970;28;20391;-75
2023/09/15 11:01:52;;;;;;;3.15;1.98;;;;;;;19.75;65.75;102046.75;5034977;28;20491;-75
2023/09/15 11:04:21;;;;;;;3.83;2.25;;;;;;;19.81;64.42;102040.91;5025781;28;20043;-73
2023/09/15 11:06:49;;;;;;;3.30;1.83;;;;;;;19.86;63.73;102046.25;5026828;28;20713;-74
2023/09/15 11:09:15;;;;;;;5.53;2.30;;;;;;;19.88;61.26;102043.25;5025043;28;20123;-74
2023/09/15 11:11:45;;;;;;;3.65;1.90;;;;;;;19.74;58.85;102045.94;5020324;28;20037;-74
2023/09/15 11:14:18;;;;;;;4.28;2.60;;;;;;;19.77;59.98;102048.03;5008443;28;20074;-74
2023/09/15 11:16:45;;;;;;;4.97;2.13;;;;;;;19.85;61.13;102044.66;5024797;28;20069;-73
2023/09/15 11:19:13;;;;;;;4.35;2.47;;;;;;;19.94;61.84;102041.22;5023490;28;20035;-76
2023/09/15 11:21:40;;;;;;;4.35;2.13;;;;;;;20.06;61.27;102042.34;5022437;28;20032;-74
2023/09/15 11:24:09;;;;;;;5.38;2.70;;;;;;;20.15;59.80;102043.25;5004132;28;20051;-74
2023/09/15 11:26:35;;;;;;;3.00;2.10;;;;;;;20.27;59.72;102045.47;5027724;28;20153;-75
2023/09/15 11:29:01;;;;;;;5.97;2.85;;;;;;;20.29;58.16;102037.78;5041079;28;20470;-75
2023/09/15 11:31:27;;;;;;;3.78;2.00;;;;;;;20.32;57.58;102031.75;5044171;28;20144;-75
2023/09/15 11:33:54;;;;;;;4.65;2.10;;;;;;;20.28;58.18;102030.75;5034873;28;20140;-73